Time;durP1;ratioP1;P1;durP2;ratioP2;P2;SDS_P1;SDS_P2;PMS_P1;PMS_P2;Temp;Humidity;BMP_temperature;BMP_pressure;BME280_temperature;BME280_humidity;BME280_pressure;Samples;Min_cycle;Max_cycle;Signal;HPM_P1;HPM_P2
2022/03/20 00:01:48;;;;;;;6.40;3.07;;;6.30;83.10;;;;;;5075407;28;20368;-76
2022/03/20 00:04:15;;;;;;;7.43;3.17;;;6.30;83.20;;;;;;5074807;28;20355;-75
2022/03/20 00:06:41;;;;;;;8.53;3.67;;;6.20;83.40;;;;;;5060499;28;20024;-74
2022/03/20 00:09:08;;;;;;;7.97;3.10;;;6.20;83.60;;;;;;5088528;28;20028;-75
2022/03/20 00:11:34;;;;;;;10.10;3.80;;;6.20;83.80;;;;;;5075845;28;20024;-76
2022/03/20 00:14:00;;;;;;;9.87;4.00;;;6.20;84.10;;;;;;5060997;28;20146;-75
2022/03/20 00:16:29;;;;;;;6.73;3.63;;;6.10;84.20;;;;;;5077051;28;20077;-75
2022/03/20 00:18:56;;;;;;;8.07;3.88;;;6.10;84.50;;;;;;5079767;28;20367;-75
2022/03/20 00:21:22;;;;;;;8.13;3.77;;;6.00;84.80;;;;;;5075184;28;20016;-75
2022/03/20 00:23:49;;;;;;;8.73;3.80;;;6.00;85.00;;;;;;5076226;28;20020;-76
2022/03/20 00:26:18;;;;;;;12.23;4.40;;;6.00;85.10;;;;;;5073820;28;20031;-75
2022/03/20 00:28:45;;;;;;;9.27;4.37;;;6.00;85.50;;;;;;5074141;28;20037;-75
2022/03/20 00:31:13;;;;;;;12.47;5.60;;;5.90;85.80;;;;;;5076515;28;20025;-76
2022/03/20 00:33:39;;;;;;;12.27;5.43;;;5.90;85.90;;;;;;5076250;28;20040;-75
2022/03/20 00:36:05;;;;;;;11.40;6.10;;;5.90;86.10;;;;;;5073882;28;20342;-75
2022/03/20 00:38:32;;;;;;;12.80;5.70;;;5.80;86.20;;;;;;5053329;28;20023;-75
2022/03/20 00:40:58;;;;;;;9.10;5.43;;;5.80;86.40;;;;;;5074210;28;20013;-75
2022/03/20 00:43:25;;;;;;;13.60;6.67;;;5.80;86.80;;;;;;5074708;28;20029;-76
2022/03/20 00:45:51;;;;;;;11.47;5.30;;;5.70;87.00;;;;;;5041892;28;20043;-76
2022/03/20 00:48:18;;;;;;;11.73;7.30;;;5.70;87.10;;;;;;5075211;28;20372;-76
2022/03/20 00:50:45;;;;;;;10.87;6.00;;;5.70;87.40;;;;;;5071008;28;20040;-76
2022/03/20 00:53:11;;;;;;;11.10;6.47;;;5.60;87.60;;;;;;5072627;28;20395;-75
2022/03/20 00:55:39;;;;;;;10.83;6.17;;;5.60;87.90;;;;;;5077099;28;20032;-76
2022/03/20 00:58:06;;;;;;;13.63;6.83;;;5.50;88.10;;;;;;5074126;28;20466;-75
2022/03/20 01:00:32;;;;;;;13.17;6.40;;;5.50;88.30;;;;;;5073608;28;20029;-75
2022/03/20 01:03:00;;;;;;;13.00;6.60;;;5.40;88.60;;;;;;5076841;28;20399;-75
2022/03/20 01:05:26;;;;;;;13.63;7.37;;;5.40;88.80;;;;;;5063858;28;20987;-75
2022/03/20 01:07:53;;;;;;;11.00;6.30;;;5.30;89.10;;;;;;5079188;28;20024;-76
2022/03/20 01:10:19;;;;;;;11.37;6.10;;;5.30;89.30;;;;;;5062187;28;20041;-75
2022/03/20 01:12:46;;;;;;;14.03;6.77;;;5.20;89.50;;;;;;5080275;28;20071;-75
2022/03/20 01:15:13;;;;;;;12.47;6.83;;;5.10;89.90;;;;;;5083429;28;20364;-75
2022/03/20 01:17:40;;;;;;;11.97;7.00;;;5.10;90.20;;;;;;5079871;28;20037;-77
2022/03/20 01:20:08;;;;;;;9.60;6.50;;;5.00;90.50;;;;;;5080332;28;20029;-76
2022/03/20 01:22:36;;;;;;;11.47;6.37;;;5.00;90.80;;;;;;5080131;28;20040;-76
2022/03/20 01:25:04;;;;;;;13.80;7.87;;;4.90;91.20;;;;;;5079279;28;20039;-76
2022/03/20 01:27:31;;;;;;;12.40;6.57;;;4.80;91.20;;;;;;5079068;28;20036;-76
2022/03/20 01:29:58;;;;;;;11.83;7.80;;;4.80;91.30;;;;;;5076033;28;20037;-76
2022/03/20 01:32:26;;;;;;;11.77;6.93;;;4.80;91.70;;;;;;5075170;28;20040;-76
2022/03/20 01:34:52;;;;;;;13.27;7.23;;;4.70;92.00;;;;;;5083608;28;20036;-76
2022/03/20 01:37:19;;;;;;;12.40;6.80;;;4.70;92.30;;;;;;5082471;28;20490;-75
2022/03/20 01:39:45;;;;;;;12.77;6.87;;;4.70;92.60;;;;;;5082347;28;20036;-76
2022/03/20 01:42:12;;;;;;;8.93;6.20;;;4.60;93.00;;;;;;5079731;28;20434;-76
2022/03/20 01:44:38;;;;;;;11.67;5.83;;;4.60;93.50;;;;;;5078741;28;20036;-76
2022/03/20 01:47:08;;;;;;;11.47;6.20;;;4.60;93.90;;;;;;5080097;28;20108;-76
2022/03/20 01:49:35;;;;;;;9.70;5.27;;;4.60;94.30;;;;;;5081899;28;20016;-76
2022/03/20 01:52:24;;;;;;;10.63;5.33;;;4.60;94.40;;;;;;5080085;28;20043;-76
2022/03/20 01:54:51;;;;;;;11.93;6.17;;;4.60;95.00;;;;;;5080739;28;20038;-76
2022/03/20 01:57:21;;;;;;;8.80;4.97;;;4.50;95.30;;;;;;5061553;28;20039;-76
2022/03/20 01:59:52;;;;;;;11.00;5.60;;;4.50;95.70;;;;;;5094813;27;20403;-76
2022/03/20 02:02:19;;;;;;;12.23;5.63;;;4.50;96.40;;;;;;5080724;28;20020;-76
2022/03/20 02:04:46;;;;;;;8.50;5.13;;;4.50;97.20;;;;;;5081034;28;20024;-76
2022/03/20 02:07:13;;;;;;;11.40;5.10;;;4.50;97.60;;;;;;5082340;28;20020;-76
2022/03/20 02:09:41;;;;;;;11.83;5.70;;;4.50;98.20;;;;;;5060330;28;20031;-76
2022/03/20 02:12:09;;;;;;;10.07;5.10;;;4.50;98.90;;;;;;5075689;28;20027;-76
2022/03/20 02:14:36;;;;;;;11.93;5.67;;;4.50;99.10;;;;;;5081034;28;20041;-76
2022/03/20 02:17:02;;;;;;;9.50;5.47;;;4.50;99.60;;;;;;5081530;28;20040;-76
2022/03/20 02:19:30;;;;;;;12.27;5.87;;;4.50;99.90;;;;;;5061354;28;20407;-76
2022/03/20 02:21:57;;;;;;;9.20;5.07;;;4.50;99.90;;;;;;5080585;28;20016;-76
2022/03/20 02:24:32;;;;;;;10.20;5.20;;;4.50;99.90;;;;;;5080793;28;20024;-76
2022/03/20 02:27:18;;;;;;;11.60;5.73;;;4.50;99.90;;;;;;5081584;28;20008;-76
2022/03/20 02:29:46;;;;;;;9.83;4.80;;;4.50;99.90;;;;;;5078931;28;20039;-76
2022/03/20 02:32:15;;;;;;;11.87;5.57;;;4.50;99.90;;;;;;5079156;28;20031;-76
2022/03/20 02:34:45;;;;;;;9.97;5.37;;;4.50;99.90;;;;;;5080560;28;20033;-76
2022/03/20 02:37:12;;;;;;;12.60;5.70;;;4.50;99.90;;;;;;5078834;28;20020;-76
2022/03/20 02:39:39;;;;;;;14.10;5.70;;;4.40;99.90;;;;;;5079929;28;20028;-76
2022/03/20 02:42:07;;;;;;;12.07;5.60;;;4.50;99.90;;;;;;5077283;28;20043;-76
2022/03/20 02:44:59;;;;;;;11.57;5.83;;;4.50;99.90;;;;;;5078913;28;20031;-76
2022/03/20 02:47:29;;;;;;;10.95;5.28;;;4.50;99.90;;;;;;5079806;28;20009;-76
2022/03/20 02:50:06;;;;;;;14.83;6.87;;;4.50;99.90;;;;;;5076001;28;20020;-76
2022/03/20 02:52:42;;;;;;;12.77;6.67;;;4.40;99.90;;;;;;5078761;28;20020;-76
2022/03/20 02:55:10;;;;;;;12.33;5.57;;;4.40;99.90;;;;;;5078274;28;20021;-76
2022/03/20 02:57:36;;;;;;;12.10;6.97;;;4.40;99.90;;;;;;5064654;28;20024;-75
2022/03/20 03:00:05;;;;;;;10.90;7.00;;;4.30;99.90;;;;;;5092475;27;20013;-75
2022/03/20 03:02:39;;;;;;;12.30;7.13;;;4.40;99.90;;;;;;5078413;28;20026;-75
2022/03/20 03:05:05;;;;;;;12.47;6.70;;;4.40;99.90;;;;;;5079761;28;21450;-76
2022/03/20 03:13:09;;;;;;;12.87;6.37;;;4.30;99.90;;;;;;5078077;28;20043;-75
2022/03/20 03:15:36;;;;;;;10.80;6.70;;;4.30;99.90;;;;;;5055771;28;20474;-76
2022/03/20 03:18:03;;;;;;;16.93;8.10;;;4.20;99.90;;;;;;5062946;28;20043;-76
2022/03/20 03:20:30;;;;;;;15.17;7.10;;;4.20;99.90;;;;;;5075435;28;20056;-76
2022/03/20 03:22:57;;;;;;;14.63;8.40;;;4.20;99.90;;;;;;5078829;28;20027;-76
2022/03/20 03:25:24;;;;;;;14.87;8.17;;;4.20;99.90;;;;;;5076728;28;20043;-76
2022/03/20 03:27:51;;;;;;;14.43;8.03;;;4.20;99.90;;;;;;5073293;28;20383;-75
2022/03/20 03:30:18;;;;;;;17.00;8.53;;;4.20;99.90;;;;;;5070250;28;20039;-75
2022/03/20 03:32:45;;;;;;;11.07;7.00;;;4.10;99.90;;;;;;5074571;28;20028;-75
2022/03/20 03:37:59;;;;;;;13.90;8.73;;;4.10;99.90;;;;;;5075290;28;20047;-76
2022/03/20 03:40:26;;;;;;;16.60;9.83;;;4.10;99.90;;;;;;5071007;28;20400;-75
2022/03/20 03:42:54;;;;;;;16.80;8.53;;;4.10;99.90;;;;;;5072566;28;20033;-75
2022/03/20 03:45:23;;;;;;;18.30;8.87;;;4.10;99.90;;;;;;5072513;28;20019;-75
2022/03/20 03:47:50;;;;;;;14.67;9.40;;;4.10;99.90;;;;;;5072350;28;20020;-75
2022/03/20 03:50:19;;;;;;;17.33;9.83;;;4.10;99.90;;;;;;5072976;28;20032;-75
2022/03/20 03:52:46;;;;;;;16.13;9.87;;;4.10;99.90;;;;;;5076769;28;20012;-75
2022/03/20 03:55:12;;;;;;;18.63;11.03;;;4.10;99.90;;;;;;5077303;28;20020;-75
2022/03/20 03:57:43;;;;;;;19.30;10.63;;;4.10;99.90;;;;;;5077042;28;20031;-75
2022/03/20 04:00:11;;;;;;;14.93;9.47;;;4.20;99.90;;;;;;5074645;28;20015;-75
2022/03/20 04:02:46;;;;;;;15.23;9.87;;;4.30;99.90;;;;;;5072511;28;20032;-75
2022/03/20 04:05:17;;;;;;;17.63;9.87;;;4.30;99.90;;;;;;5075624;28;20008;-78
2022/03/20 04:07:47;;;;;;;20.00;10.17;;;4.30;99.90;;;;;;5075004;28;20016;-75
2022/03/20 04:10:15;;;;;;;20.40;9.93;;;4.30;99.90;;;;;;5069041;28;20008;-75
2022/03/20 04:12:43;;;;;;;19.63;10.90;;;4.30;99.90;;;;;;5075224;28;20055;-75
2022/03/20 04:15:14;;;;;;;18.83;11.17;;;4.30;99.90;;;;;;5071217;28;20029;-75
2022/03/20 04:17:42;;;;;;;19.83;10.23;;;4.40;99.90;;;;;;5088668;28;20020;-75
2022/03/20 04:20:10;;;;;;;19.43;10.73;;;4.40;99.90;;;;;;5075509;28;20023;-75
2022/03/20 04:22:39;;;;;;;19.00;10.53;;;4.50;99.90;;;;;;5093010;28;20407;-75
2022/03/20 04:25:06;;;;;;;17.30;11.47;;;4.50;99.90;;;;;;5093804;28;20016;-74
2022/03/20 04:27:33;;;;;;;20.67;11.27;;;4.50;99.90;;;;;;5094214;28;20024;-75
2022/03/20 04:30:00;;;;;;;20.53;11.90;;;4.60;99.90;;;;;;5093849;28;20020;-75
2022/03/20 04:32:26;;;;;;;18.77;11.00;;;4.70;99.90;;;;;;5094529;28;20040;-74
2022/03/20 04:34:53;;;;;;;18.53;10.97;;;4.70;99.90;;;;;;5074829;28;20027;-74
2022/03/20 04:37:21;;;;;;;22.80;12.03;;;4.70;99.90;;;;;;5074804;28;20040;-74
2022/03/20 04:39:48;;;;;;;21.30;11.80;;;4.70;99.90;;;;;;5075641;28;20020;-75
2022/03/20 04:42:15;;;;;;;18.90;11.60;;;4.70;99.90;;;;;;5094331;28;20639;-75
2022/03/20 04:44:43;;;;;;;18.33;11.10;;;4.70;99.90;;;;;;5062916;28;20038;-74
2022/03/20 04:58:30;;;;;;;17.53;12.00;;;4.80;99.90;;;;;;5077879;28;20042;-77
2022/03/20 05:00:57;;;;;;;21.33;12.10;;;4.80;99.90;;;;;;5061638;28;21155;-75
2022/03/20 05:03:24;;;;;;;18.37;10.37;;;4.80;99.90;;;;;;5096167;28;20031;-74
2022/03/20 05:05:50;;;;;;;17.10;10.87;;;4.80;99.90;;;;;;5093000;28;20027;-74
2022/03/20 05:08:17;;;;;;;16.87;10.83;;;4.80;99.90;;;;;;5075882;28;20086;-75
2022/03/20 05:13:30;;;;;;;17.30;11.50;;;4.80;99.90;;;;;;5069302;28;20031;-75
2022/03/20 05:15:56;;;;;;;21.20;12.00;;;4.80;99.90;;;;;;5098689;27;20012;-76
2022/03/20 05:18:23;;;;;;;20.57;12.17;;;4.80;99.90;;;;;;5098327;27;20024;-74
2022/03/20 05:20:52;;;;;;;17.93;11.00;;;4.80;99.90;;;;;;5094883;27;20035;-76
2022/03/20 05:23:22;;;;;;;23.50;12.30;;;4.80;99.90;;;;;;5096263;27;20043;-75
2022/03/20 05:25:48;;;;;;;18.23;11.73;;;4.90;99.80;;;;;;5079286;28;20419;-76
2022/03/20 05:28:16;;;;;;;22.77;12.37;;;4.80;99.50;;;;;;5079858;28;20023;-75
2022/03/20 05:30:44;;;;;;;19.53;12.33;;;4.90;99.60;;;;;;5077442;27;20030;-75
2022/03/20 05:33:12;;;;;;;19.97;11.63;;;4.80;99.50;;;;;;5075810;28;20027;-74
2022/03/20 05:35:40;;;;;;;17.97;12.30;;;4.90;99.40;;;;;;5079107;27;20030;-74
2022/03/20 05:38:09;;;;;;;20.23;10.67;;;4.80;99.10;;;;;;5096845;27;20023;-74
2022/03/20 05:40:41;;;;;;;19.90;11.47;;;4.80;99.10;;;;;;5096378;27;20037;-74
2022/03/20 05:43:08;;;;;;;20.52;13.20;;;4.80;99.00;;;;;;5067756;28;20028;-74
2022/03/20 05:45:39;;;;;;;23.30;12.30;;;4.80;99.00;;;;;;5080661;28;20572;-74
2022/03/20 05:48:09;;;;;;;21.77;13.10;;;4.80;98.90;;;;;;5082315;28;20024;-74
2022/03/20 05:50:36;;;;;;;21.20;11.90;;;4.70;98.80;;;;;;5079473;27;20032;-77
2022/03/20 05:53:03;;;;;;;19.67;12.07;;;4.80;98.70;;;;;;5082451;28;20027;-74
2022/03/20 05:58:15;;;;;;;18.23;12.17;;;4.70;98.30;;;;;;5099422;27;20028;-74
2022/03/20 06:00:42;;;;;;;20.37;12.30;;;4.70;98.30;;;;;;5076832;28;20055;-75
2022/03/20 06:03:12;;;;;;;21.30;13.10;;;4.70;98.20;;;;;;5080481;28;20035;-74
2022/03/20 06:05:40;;;;;;;25.87;13.80;;;4.70;98.20;;;;;;5079244;28;20012;-75
2022/03/20 06:08:06;;;;;;;24.33;13.43;;;4.70;98.10;;;;;;5079389;28;20035;-75
2022/03/20 06:10:34;;;;;;;18.73;12.60;;;4.70;98.00;;;;;;5078428;28;20434;-76
2022/03/20 06:13:03;;;;;;;19.73;11.53;;;4.80;97.90;;;;;;5098482;27;20022;-75
2022/03/20 06:15:29;;;;;;;19.73;12.17;;;4.80;98.00;;;;;;5097413;27;20023;-75
2022/03/20 06:17:57;;;;;;;22.30;11.50;;;4.80;97.90;;;;;;5094867;28;20048;-75
2022/03/20 06:20:25;;;;;;;24.67;12.73;;;4.80;97.90;;;;;;5077598;27;20028;-75
2022/03/20 06:22:52;;;;;;;21.03;11.63;;;4.90;97.80;;;;;;5096473;28;20027;-76
2022/03/20 06:25:20;;;;;;;21.63;12.80;;;4.90;97.60;;;;;;5097853;27;20448;-75
2022/03/20 06:27:52;;;;;;;19.93;12.80;;;5.00;97.30;;;;;;5098030;27;20020;-75
2022/03/20 06:30:21;;;;;;;21.00;13.03;;;5.00;96.90;;;;;;5077097;28;20023;-75
2022/03/20 06:32:48;;;;;;;22.10;13.77;;;5.10;96.90;;;;;;5098140;27;20491;-75
2022/03/20 06:35:18;;;;;;;19.20;12.43;;;5.20;96.50;;;;;;5080456;27;20399;-75
2022/03/20 06:37:49;;;;;;;22.90;13.40;;;5.20;96.30;;;;;;5079228;27;20023;-75
2022/03/20 06:40:17;;;;;;;19.50;12.27;;;5.30;96.30;;;;;;5094695;27;20039;-75
2022/03/20 06:42:43;;;;;;;24.03;14.30;;;5.30;95.80;;;;;;5097793;28;20020;-74
2022/03/20 06:45:11;;;;;;;23.40;13.80;;;5.30;95.60;;;;;;5097739;27;21169;-74
2022/03/20 06:47:40;;;;;;;21.70;12.03;;;5.30;95.50;;;;;;5093670;27;20383;-75
2022/03/20 06:50:08;;;;;;;20.30;13.13;;;5.30;95.40;;;;;;5092399;27;20050;-74
2022/03/20 06:52:35;;;;;;;20.97;12.83;;;5.30;95.30;;;;;;5079432;28;20023;-76
2022/03/20 06:55:03;;;;;;;22.50;14.17;;;5.20;95.20;;;;;;5081179;28;20023;-75
2022/03/20 06:57:30;;;;;;;21.30;13.27;;;5.30;95.30;;;;;;5077860;28;20032;-74
2022/03/20 07:00:02;;;;;;;20.00;13.97;;;5.30;95.10;;;;;;5093565;27;20027;-74
2022/03/20 07:02:36;;;;;;;23.73;13.43;;;5.30;94.70;;;;;;5092984;27;20082;-74
2022/03/20 07:05:03;;;;;;;24.23;13.77;;;5.20;94.60;;;;;;5082966;28;20031;-74
2022/03/20 07:07:29;;;;;;;23.17;14.20;;;5.30;94.50;;;;;;5096240;28;20022;-74
2022/03/20 07:09:56;;;;;;;20.23;12.93;;;5.20;94.10;;;;;;5095108;27;20347;-74
2022/03/20 07:12:22;;;;;;;22.60;13.50;;;5.20;94.10;;;;;;5076897;28;20031;-75
2022/03/20 07:14:49;;;;;;;21.70;14.27;;;5.10;94.10;;;;;;5062908;28;20043;-75
2022/03/20 07:17:18;;;;;;;23.73;12.97;;;5.10;94.00;;;;;;5047691;28;20028;-75
2022/03/20 07:19:45;;;;;;;17.83;12.40;;;5.10;93.90;;;;;;5095189;28;20036;-74
2022/03/20 07:22:13;;;;;;;21.47;13.83;;;5.10;93.90;;;;;;5080046;27;20027;-74
2022/03/20 07:24:41;;;;;;;21.57;12.30;;;5.20;93.70;;;;;;5096559;27;20020;-75
2022/03/20 07:29:54;;;;;;;20.70;12.87;;;5.40;92.90;;;;;;5096028;27;20126;-77
2022/03/20 07:32:20;;;;;;;24.90;13.67;;;5.60;92.80;;;;;;5099468;27;20027;-76
2022/03/20 07:34:49;;;;;;;22.07;13.80;;;5.60;92.70;;;;;;5097746;28;20039;-76
2022/03/20 07:37:17;;;;;;;23.43;15.37;;;5.70;92.50;;;;;;5080327;27;20395;-75
2022/03/20 07:39:49;;;;;;;22.20;14.10;;;5.80;92.00;;;;;;5083136;27;20378;-74
2022/03/20 07:42:18;;;;;;;22.35;13.35;;;5.80;91.80;;;;;;5098670;27;20020;-76
2022/03/20 07:44:49;;;;;;;20.40;13.63;;;5.90;91.70;;;;;;5097336;27;20023;-75
2022/03/20 07:47:20;;;;;;;20.77;13.17;;;6.00;91.60;;;;;;5065383;27;20035;-76
2022/03/20 07:49:48;;;;;;;22.10;14.23;;;6.10;91.50;;;;;;5080429;27;20031;-76
2022/03/20 07:52:15;;;;;;;21.23;13.33;;;6.20;91.10;;;;;;5079615;28;20035;-75
2022/03/20 07:54:42;;;;;;;22.30;14.90;;;6.20;91.00;;;;;;5097751;27;20032;-75
2022/03/20 07:57:09;;;;;;;19.77;13.97;;;6.40;90.40;;;;;;5099422;28;20020;-76
2022/03/20 07:59:36;;;;;;;20.17;13.63;;;6.40;89.80;;;;;;5082454;27;20043;-75
2022/03/20 08:02:02;;;;;;;24.33;13.77;;;6.40;89.90;;;;;;5083596;28;20050;-76
2022/03/20 08:04:29;;;;;;;20.83;14.17;;;6.50;89.10;;;;;;5080608;28;20490;-75
2022/03/20 08:06:55;;;;;;;32.37;16.13;;;6.50;88.90;;;;;;5079242;27;20039;-75
2022/03/20 08:09:22;;;;;;;21.98;14.52;;;6.50;88.10;;;;;;5080049;28;20031;-75
2022/03/20 08:11:49;;;;;;;22.70;15.03;;;6.50;87.40;;;;;;5061373;27;20384;-73
2022/03/20 08:14:16;;;;;;;22.63;14.70;;;6.40;86.80;;;;;;5065170;28;20023;-75
2022/03/20 08:16:43;;;;;;;23.00;14.53;;;6.50;86.70;;;;;;5098596;27;20024;-75
2022/03/20 08:19:11;;;;;;;25.17;15.83;;;6.50;86.00;;;;;;5098032;28;20050;-75
2022/03/20 08:21:39;;;;;;;25.77;15.88;;;6.60;85.50;;;;;;5094916;27;20024;-75
2022/03/20 08:24:07;;;;;;;23.83;15.60;;;6.70;85.40;;;;;;5099127;27;20024;-74
2022/03/20 08:26:34;;;;;;;21.08;14.68;;;6.70;83.80;;;;;;5098951;28;20016;-74
2022/03/20 08:29:02;;;;;;;27.07;16.23;;;6.80;84.10;;;;;;5063804;28;20030;-74
2022/03/20 08:31:30;;;;;;;23.83;15.40;;;6.80;83.50;;;;;;5076285;28;20364;-75
2022/03/20 08:33:57;;;;;;;26.87;14.27;;;6.80;83.10;;;;;;5098895;28;20038;-75
2022/03/20 08:36:24;;;;;;;23.80;14.93;;;6.80;82.30;;;;;;5099201;28;20031;-73
2022/03/20 08:38:52;;;;;;;24.80;16.77;;;6.80;82.50;;;;;;5078129;28;20020;-73
2022/03/20 08:41:20;;;;;;;24.27;15.73;;;6.90;82.40;;;;;;5073818;28;20482;-73
2022/03/20 08:43:46;;;;;;;26.63;16.20;;;7.10;82.80;;;;;;5097281;28;20012;-75
2022/03/20 08:46:16;;;;;;;21.37;15.00;;;7.30;81.00;;;;;;5096813;28;20522;-75
2022/03/20 08:48:43;;;;;;;21.80;14.97;;;7.30;80.80;;;;;;5100368;27;20122;-76
2022/03/20 08:51:10;;;;;;;23.97;16.90;;;7.30;80.90;;;;;;5066294;27;20032;-75
2022/03/20 08:53:39;;;;;;;25.20;16.92;;;7.40;80.90;;;;;;5102148;27;20031;-74
2022/03/20 08:56:06;;;;;;;25.70;16.65;;;7.40;80.00;;;;;;5082398;27;20030;-75
2022/03/20 08:58:33;;;;;;;22.35;16.13;;;7.50;79.90;;;;;;5081004;28;20027;-74
2022/03/20 09:01:00;;;;;;;22.63;15.50;;;7.50;79.40;;;;;;5098737;27;20379;-74
2022/03/20 09:03:27;;;;;;;27.58;17.25;;;7.60;79.00;;;;;;5079881;28;20024;-76
2022/03/20 09:05:54;;;;;;;29.43;17.17;;;7.70;78.30;;;;;;5082692;28;20050;-77
2022/03/20 09:08:20;;;;;;;22.58;15.20;;;7.60;77.20;;;;;;5102686;27;20023;-75
2022/03/20 09:10:50;;;;;;;24.92;16.75;;;7.60;77.70;;;;;;5079640;28;20031;-74
2022/03/20 09:13:18;;;;;;;26.90;18.05;;;7.60;77.60;;;;;;5068352;28;20055;-74
2022/03/20 09:15:45;;;;;;;28.08;16.83;;;7.70;76.30;;;;;;5099624;27;20035;-74
2022/03/20 09:20:57;;;;;;;26.27;15.98;;;7.70;76.00;;;;;;5097344;27;20028;-74
2022/03/20 09:23:24;;;;;;;28.80;16.88;;;7.80;76.40;;;;;;5072613;27;20043;-75
2022/03/20 09:25:53;;;;;;;30.30;20.75;;;7.80;75.80;;;;;;5103072;27;20371;-75
2022/03/20 09:28:21;;;;;;;36.35;18.67;;;7.90;75.20;;;;;;5066894;27;20024;-75
2022/03/20 09:30:48;;;;;;;32.28;20.15;;;8.00;75.10;;;;;;5068589;27;20367;-75
2022/03/20 09:33:15;;;;;;;27.40;17.38;;;8.00;74.90;;;;;;5102942;27;20058;-75
2022/03/20 09:35:43;;;;;;;28.40;19.02;;;8.10;74.60;;;;;;5084705;27;20379;-73
2022/03/20 09:38:10;;;;;;;24.33;16.98;;;8.10;74.20;;;;;;5074871;28;20032;-75
2022/03/20 09:40:38;;;;;;;29.63;19.13;;;8.10;74.30;;;;;;5045828;27;20027;-75
2022/03/20 09:43:07;;;;;;;25.75;16.90;;;8.20;74.20;;;;;;5101725;27;20027;-76
2022/03/20 09:45:35;;;;;;;29.38;17.60;;;8.30;74.20;;;;;;5100276;27;20378;-75
2022/03/20 09:48:03;;;;;;;29.60;18.73;;;8.60;74.30;;;;;;5105745;27;20027;-77
2022/03/20 09:50:31;;;;;;;27.63;18.05;;;8.90;73.20;;;;;;5096213;27;20024;-76
2022/03/20 09:52:58;;;;;;;27.15;18.60;;;9.10;71.90;;;;;;5083761;27;20020;-75
2022/03/20 09:55:26;;;;;;;28.27;17.95;;;9.30;71.70;;;;;;5082223;27;20046;-76
2022/03/20 09:57:56;;;;;;;27.13;18.98;;;9.40;71.90;;;;;;5085817;27;20043;-76
2022/03/20 10:00:24;;;;;;;30.20;18.50;;;9.50;70.50;;;;;;5095650;27;20028;-75
2022/03/20 10:02:51;;;;;;;26.40;18.15;;;9.60;70.30;;;;;;5101852;27;20363;-78
2022/03/20 10:05:21;;;;;;;28.75;19.52;;;9.70;70.10;;;;;;5102880;27;20007;-76
2022/03/20 10:07:48;;;;;;;27.17;18.25;;;9.70;69.20;;;;;;5067859;27;20019;-76
2022/03/20 10:10:22;;;;;;;27.23;18.23;;;9.70;69.40;;;;;;5099397;27;20022;-77
2022/03/20 10:12:55;;;;;;;29.83;17.90;;;9.70;69.60;;;;;;5104662;27;20031;-76
2022/03/20 10:15:37;;;;;;;31.02;19.10;;;9.90;70.20;;;;;;5099252;27;20379;-76
2022/03/20 10:18:14;;;;;;;29.52;20.65;;;10.00;68.90;;;;;;5083539;28;20043;-77
2022/03/20 10:21:12;;;;;;;27.50;19.05;;;10.10;67.90;;;;;;5079119;27;20024;-76
2022/03/20 10:23:42;;;;;;;29.30;20.33;;;10.20;68.40;;;;;;5100755;27;20040;-79
2022/03/20 10:26:14;;;;;;;26.48;18.92;;;10.30;67.50;;;;;;5085042;27;20016;-77
2022/03/20 10:28:52;;;;;;;28.92;20.30;;;10.40;67.60;;;;;;5068363;28;20019;-79
2022/03/20 10:31:26;;;;;;;25.33;19.23;;;10.60;66.90;;;;;;5090409;28;20027;-74
2022/03/20 10:34:18;;;;;;;29.20;19.33;;;10.70;66.90;;;;;;5093344;27;20050;-76
2022/03/20 10:36:46;;;;;;;26.77;19.88;;;10.80;66.20;;;;;;5088740;27;20387;-76
2022/03/20 10:39:16;;;;;;;32.15;22.27;;;10.80;65.90;;;;;;5083226;27;20031;-77
2022/03/20 10:41:45;;;;;;;33.40;21.73;;;10.70;66.50;;;;;;5079562;27;20015;-78
2022/03/20 10:44:18;;;;;;;32.70;21.27;;;10.70;66.00;;;;;;5102179;27;23018;-77
2022/03/20 10:46:58;;;;;;;30.15;20.75;;;10.60;66.60;;;;;;5082029;28;20028;-77
2022/03/20 10:49:26;;;;;;;31.42;21.75;;;10.70;66.40;;;;;;5065941;28;20463;-78
2022/03/20 10:52:06;;;;;;;32.10;22.70;;;10.70;65.90;;;;;;5081544;27;20024;-77
2022/03/20 10:54:41;;;;;;;29.30;21.60;;;10.60;65.40;;;;;;5082780;28;20032;-77
2022/03/20 10:57:08;;;;;;;35.17;21.63;;;10.50;65.60;;;;;;5082144;28;20007;-78
2022/03/20 10:59:36;;;;;;;29.48;21.30;;;10.30;65.60;;;;;;5099040;27;20030;-76
2022/03/20 11:02:05;;;;;;;26.52;19.40;;;10.20;66.50;;;;;;5069110;27;20032;-75
2022/03/20 11:04:32;;;;;;;30.48;20.55;;;10.10;66.50;;;;;;5066928;28;20023;-77
2022/03/20 11:07:00;;;;;;;32.85;22.65;;;10.10;66.60;;;;;;5070212;27;20051;-78
2022/03/20 11:09:27;;;;;;;30.67;21.63;;;10.00;66.10;;;;;;5099720;27;20043;-78
2022/03/20 11:11:57;;;;;;;29.48;20.90;;;9.90;66.20;;;;;;5081615;28;20039;-77
2022/03/20 11:14:26;;;;;;;29.73;21.73;;;9.80;66.50;;;;;;5083591;28;20518;-79
2022/03/20 11:17:05;;;;;;;30.85;22.42;;;9.80;66.90;;;;;;5083848;28;20039;-78
2022/03/20 11:19:34;;;;;;;31.83;21.65;;;9.70;67.60;;;;;;5066288;27;20019;-78
2022/03/20 11:22:09;;;;;;;27.70;21.05;;;9.70;67.40;;;;;;5067175;28;20022;-79
2022/03/20 11:24:37;;;;;;;28.83;21.33;;;9.60;67.80;;;;;;5101993;27;20027;-77
2022/03/20 11:27:05;;;;;;;31.90;22.35;;;9.60;67.90;;;;;;5067068;28;20363;-77
2022/03/20 11:29:46;;;;;;;29.08;20.08;;;9.60;68.20;;;;;;5067958;27;20051;-79
2022/03/20 11:32:14;;;;;;;29.80;21.77;;;9.60;68.60;;;;;;5087799;27;20035;-77
2022/03/20 11:34:42;;;;;;;27.77;18.92;;;9.60;68.50;;;;;;5104710;27;20039;-78
2022/03/20 11:37:17;;;;;;;32.10;22.00;;;9.60;68.70;;;;;;5102313;27;20387;-78
2022/03/20 11:40:10;;;;;;;28.60;21.25;;;9.70;68.70;;;;;;5066594;27;20040;-77
2022/03/20 11:42:37;;;;;;;28.58;20.20;;;9.70;68.80;;;;;;5103320;27;20008;-77
2022/03/20 11:45:07;;;;;;;29.33;21.65;;;9.70;68.60;;;;;;5068539;28;20038;-76
2022/03/20 11:47:36;;;;;;;31.50;21.58;;;9.70;68.70;;;;;;5097888;27;20024;-77
2022/03/20 11:50:16;;;;;;;29.08;21.58;;;9.80;69.10;;;;;;5095391;27;20475;-76
2022/03/20 11:52:55;;;;;;;31.92;22.25;;;9.90;68.90;;;;;;5082928;28;20027;-75
2022/03/20 11:55:52;;;;;;;29.75;21.38;;;9.90;68.60;;;;;;5098374;28;20019;-77
2022/03/20 11:58:22;;;;;;;34.22;21.85;;;9.90;68.60;;;;;;5081348;28;20023;-76
2022/03/20 12:01:06;;;;;;;31.77;22.25;;;9.90;68.60;;;;;;5098276;27;20015;-76
2022/03/20 12:03:54;;;;;;;29.38;21.10;;;10.00;69.00;;;;;;5083403;28;20012;-76
2022/03/20 12:06:33;;;;;;;34.35;23.58;;;10.10;69.00;;;;;;5083799;28;20043;-76
2022/03/20 12:09:10;;;;;;;32.63;22.80;;;10.00;68.50;;;;;;5061610;28;20031;-76
2022/03/20 12:12:07;;;;;;;34.50;23.40;;;10.00;68.60;;;;;;5077961;27;20012;-76
2022/03/20 12:14:56;;;;;;;31.63;20.33;;;10.10;68.70;;;;;;5100322;27;20019;-77
2022/03/20 12:17:22;;;;;;;28.67;20.13;;;10.20;68.80;;;;;;5065274;28;20031;-76
2022/03/20 12:19:53;;;;;;;30.20;21.85;;;10.20;68.90;;;;;;5062687;28;20548;-76
2022/03/20 12:22:20;;;;;;;32.40;22.42;;;10.40;68.40;;;;;;5081919;28;20012;-75
2022/03/20 12:24:54;;;;;;;29.20;20.85;;;10.40;67.50;;;;;;5062764;28;20482;-77
2022/03/20 12:27:23;;;;;;;28.85;21.73;;;10.30;67.40;;;;;;5098870;28;20020;-75
2022/03/20 12:29:50;;;;;;;33.13;23.35;;;10.20;67.50;;;;;;5076540;28;20070;-76
2022/03/20 12:32:18;;;;;;;34.55;22.73;;;10.20;67.50;;;;;;5077471;28;20375;-75
2022/03/20 12:35:05;;;;;;;32.90;23.83;;;10.20;67.70;;;;;;5080782;28;20035;-75
2022/03/20 12:37:33;;;;;;;29.42;21.25;;;10.10;67.90;;;;;;5066472;28;20043;-75
2022/03/20 12:40:02;;;;;;;31.42;22.75;;;10.10;68.10;;;;;;5078678;28;20348;-75
2022/03/20 12:42:35;;;;;;;32.72;22.55;;;10.10;68.60;;;;;;5065775;28;20023;-74
2022/03/20 12:45:04;;;;;;;34.50;22.17;;;10.10;68.30;;;;;;5076935;28;20027;-74
2022/03/20 12:47:31;;;;;;;30.00;23.05;;;10.10;68.50;;;;;;5097697;28;20040;-76
2022/03/20 12:50:03;;;;;;;30.48;22.88;;;10.20;68.70;;;;;;5075846;28;20028;-75
2022/03/20 12:52:33;;;;;;;30.13;22.50;;;10.20;68.50;;;;;;5066125;28;20035;-75
2022/03/20 12:55:03;;;;;;;30.95;22.70;;;10.20;68.70;;;;;;5078448;28;20383;-75
2022/03/20 12:57:40;;;;;;;30.83;21.95;;;10.20;68.70;;;;;;5080417;28;20103;-75
2022/03/20 13:00:09;;;;;;;25.10;19.45;;;10.20;68.90;;;;;;5060569;28;20021;-75
2022/03/20 13:03:03;;;;;;;29.42;21.80;;;10.20;69.20;;;;;;5064388;28;20476;-75
2022/03/20 13:05:32;;;;;;;30.90;21.83;;;10.30;69.70;;;;;;5098335;28;20044;-75
2022/03/20 13:07:59;;;;;;;34.35;23.55;;;10.20;69.60;;;;;;5095258;28;20035;-75
2022/03/20 13:10:36;;;;;;;29.75;21.55;;;10.20;69.50;;;;;;5056028;28;20035;-75
2022/03/20 13:13:04;;;;;;;28.88;20.15;;;10.10;69.80;;;;;;5081097;28;20012;-76
2022/03/20 13:15:39;;;;;;;33.80;24.52;;;10.00;70.10;;;;;;5097819;28;20031;-75
2022/03/20 13:18:07;;;;;;;30.30;22.02;;;10.00;70.20;;;;;;5065934;28;20396;-76
2022/03/20 13:20:41;;;;;;;31.00;22.02;;;9.90;70.30;;;;;;5073974;28;20011;-75